Forney's Hourly Summary for Wednesday, May 9, 2018
Hour Temp
(f)
RH
(%)
Solar Rad.
(MJ/m2)
Rainfall
(in)
Wind
(mph)
5/9/2018 12:00 AM 72 63 0 0 0.8
5/9/2018 1:00 AM 72 57 0 0 4.04
5/9/2018 2:00 AM 71 59 0 0 4.35
5/9/2018 3:00 AM 70 58 0 0 3.67
5/9/2018 4:00 AM 69 58 0 0 3.75
5/9/2018 5:00 AM 68 61 0 0 3.7
5/9/2018 6:00 AM 66 63 0 0 3.23
5/9/2018 7:00 AM 64 68 0.02 0 1.42
5/9/2018 8:00 AM 64 75 0.31 0 2.39
5/9/2018 9:00 AM 66 74 0.5 0 2.32
5/9/2018 10:00 AM 70 63 1.8 0 3.52
5/9/2018 11:00 AM 74 56 2.29 0 3.55
5/9/2018 12:00 PM 78 47 2.76 0 4.7
5/9/2018 1:00 PM 80 42 2.93 0 5.82
5/9/2018 2:00 PM 82 42 3.18 0 7.2
5/9/2018 3:00 PM 83 41 3.01 0 7.16
5/9/2018 4:00 PM 84 39 2.67 0 7.48
5/9/2018 5:00 PM 85 36 2.17 0 7.17
5/9/2018 6:00 PM 85 38 1.54 0 6.84
5/9/2018 7:00 PM 84 37 0.86 0 5.14
5/9/2018 8:00 PM 82 41 0.12 0 4.22
5/9/2018 9:00 PM 78 45 0.01 0 0.64
5/9/2018 10:00 PM 74 57 0 0 0.32
5/9/2018 11:00 PM 73 57 0 0 0.66
Data Summary 74 53 24.17 0.00 3.92